createdAt,value
2019-06-26T00:00:14.329Z,76.22
2019-06-26T00:02:44.884Z,76.35
2019-06-26T00:05:15.035Z,76.42
2019-06-26T00:07:45.066Z,76.63
2019-06-26T00:10:15.612Z,76.68
2019-06-26T00:12:45.718Z,76.42
2019-06-26T00:15:18.402Z,75.78
2019-06-26T00:17:48.435Z,76.06
2019-06-26T00:20:18.884Z,76.10
2019-06-26T00:22:48.909Z,76.50
2019-06-26T00:25:19.016Z,76.37
2019-06-26T00:27:49.171Z,76.48
2019-06-26T00:30:19.328Z,76.37
2019-06-26T00:32:49.408Z,76.52
2019-06-26T00:35:19.448Z,76.69
2019-06-26T00:37:52.993Z,76.60
2019-06-26T00:40:24.227Z,76.69
2019-06-26T00:42:54.232Z,76.92
2019-06-26T00:45:24.324Z,77.01
2019-06-26T00:47:54.369Z,76.90
2019-06-26T00:50:25.591Z,77.27
2019-06-26T00:52:56.461Z,77.57
2019-06-26T00:55:26.501Z,78.57
2019-06-26T00:57:57.027Z,78.55
2019-06-26T01:00:38.901Z,78.82
2019-06-26T01:03:08.918Z,78.69
2019-06-26T01:05:40.457Z,78.70
2019-06-26T01:08:10.465Z,78.47
2019-06-26T01:10:43.326Z,78.60
2019-06-26T01:13:13.465Z,78.80
2019-06-26T01:15:43.574Z,78.84
2019-06-26T01:18:13.575Z,78.72
2019-06-26T01:20:43.679Z,78.53
2019-06-26T01:23:13.685Z,78.40
2019-06-26T01:25:43.721Z,78.31
2019-06-26T01:28:15.247Z,77.80
2019-06-26T01:30:45.352Z,77.85
2019-06-26T01:33:15.411Z,77.56
2019-06-26T01:35:45.507Z,78.05
2019-06-26T01:38:15.812Z,78.17
2019-06-26T01:40:46.662Z,78.47
2019-06-26T01:43:16.670Z,78.56
2019-06-26T01:45:46.695Z,78.33
2019-06-26T01:48:16.703Z,78.45
2019-06-26T01:50:48.703Z,78.65
2019-06-26T01:53:19.744Z,78.43
2019-06-26T01:55:49.802Z,78.87
2019-06-26T01:58:19.813Z,78.45
2019-06-26T02:00:49.909Z,78.54
2019-06-26T02:03:20.070Z,78.50
2019-06-26T02:05:50.333Z,78.76
2019-06-26T02:08:20.369Z,79.11
2019-06-26T02:10:50.518Z,79.19
2019-06-26T02:13:20.889Z,79.30
2019-06-26T02:15:51.033Z,79.62
2019-06-26T02:18:34.721Z,79.62
2019-06-26T02:21:04.832Z,79.79
2019-06-26T02:23:34.908Z,80.13
2019-06-26T02:26:05.072Z,80.12
2019-06-26T02:28:35.076Z,80.06
2019-06-26T02:31:05.176Z,80.27
2019-06-26T02:33:36.939Z,80.55
2019-06-26T02:36:06.980Z,80.41
2019-06-26T02:38:41.485Z,80.53
2019-06-26T02:41:13.831Z,80.87
2019-06-26T02:43:45.471Z,80.90
2019-06-26T02:46:15.516Z,81.60
2019-06-26T02:48:45.570Z,81.85
2019-06-26T02:51:18.647Z,81.94
2019-06-26T02:53:48.999Z,81.84
2019-06-26T02:56:19.652Z,81.87
2019-06-26T02:58:51.729Z,81.67
2019-06-26T03:01:21.814Z,81.32
2019-06-26T03:03:51.997Z,81.37
2019-06-26T03:06:22.566Z,81.32
2019-06-26T03:08:55.581Z,81.36
2019-06-26T03:11:25.976Z,81.30
2019-06-26T03:13:55.997Z,81.09
2019-06-26T03:16:26.341Z,81.07
2019-06-26T03:18:56.437Z,81.40
2019-06-26T03:21:26.411Z,81.38
2019-06-26T03:23:56.440Z,81.58
2019-06-26T03:26:26.531Z,81.63
2019-06-26T03:28:58.182Z,81.37
2019-06-26T03:31:28.407Z,81.59
2019-06-26T03:34:01.246Z,81.43
2019-06-26T03:36:31.242Z,81.39
2019-06-26T03:39:01.282Z,80.75
2019-06-26T03:41:32.938Z,80.15
2019-06-26T03:44:02.969Z,80.11
2019-06-26T03:46:34.778Z,79.80
2019-06-26T03:49:06.008Z,79.82
2019-06-26T03:51:37.056Z,79.54
2019-06-26T03:54:07.091Z,78.94
2019-06-26T03:56:37.095Z,78.96
2019-06-26T03:59:07.182Z,78.61
2019-06-26T04:01:37.288Z,78.54
2019-06-26T04:04:11.502Z,78.32
2019-06-26T04:06:41.512Z,77.91
2019-06-26T04:09:11.901Z,77.06
2019-06-26T04:11:43.312Z,76.02
2019-06-26T04:14:13.339Z,75.65
2019-06-26T04:16:44.995Z,75.64
2019-06-26T04:19:15.024Z,74.93
2019-06-26T04:21:45.560Z,73.60
2019-06-26T04:24:15.591Z,73.11
2019-06-26T04:26:45.592Z,72.62
2019-06-26T04:29:15.608Z,72.00
2019-06-26T04:31:45.631Z,71.72
2019-06-26T04:34:17.082Z,71.54
2019-06-26T04:36:47.112Z,70.99
2019-06-26T04:39:17.114Z,70.96
2019-06-26T04:41:47.150Z,70.50
2019-06-26T04:44:17.147Z,70.10
2019-06-26T04:46:47.182Z,70.04
2019-06-26T04:49:17.202Z,69.96
2019-06-26T04:51:49.831Z,69.67
2019-06-26T04:54:20.924Z,69.53
2019-06-26T04:56:50.956Z,69.00
2019-06-26T04:59:20.982Z,68.82
2019-06-26T05:01:51.072Z,68.77
2019-06-26T05:04:22.652Z,68.54
2019-06-26T05:06:52.679Z,68.48
2019-06-26T05:09:22.728Z,67.90
2019-06-26T05:11:52.736Z,66.92
2019-06-26T05:14:22.801Z,66.04
2019-06-26T05:16:53.856Z,65.05
2019-06-26T05:19:23.946Z,64.40
2019-06-26T05:21:53.946Z,63.68
2019-06-26T05:24:23.957Z,63.27
2019-06-26T05:26:53.949Z,62.91
2019-06-26T05:29:24.604Z,62.48
2019-06-26T05:31:54.641Z,62.23
2019-06-26T05:34:25.214Z,61.79
2019-06-26T05:36:55.225Z,61.61
2019-06-26T05:39:25.567Z,61.36
2019-06-26T05:41:55.607Z,61.45
2019-06-26T05:44:25.690Z,61.26
2019-06-26T05:46:55.712Z,60.49
2019-06-26T05:49:25.807Z,60.56
2019-06-26T05:51:55.810Z,60.58
2019-06-26T05:54:25.828Z,60.73
2019-06-26T05:56:55.843Z,60.66
2019-06-26T05:59:25.842Z,60.38
2019-06-26T06:01:59.146Z,59.63
2019-06-26T06:04:29.168Z,59.90
2019-06-26T06:06:59.187Z,60.08
2019-06-26T06:09:31.577Z,59.85
2019-06-26T06:12:01.678Z,59.15
2019-06-26T06:14:32.300Z,58.88
2019-06-26T06:17:04.235Z,59.39
2019-06-26T06:19:35.296Z,58.43
2019-06-26T06:22:05.318Z,58.63
2019-06-26T06:24:35.314Z,58.52
2019-06-26T06:27:05.468Z,58.04
2019-06-26T06:29:35.476Z,57.48
2019-06-26T06:32:05.565Z,57.84
2019-06-26T06:34:35.550Z,57.63
2019-06-26T06:37:05.580Z,57.61
2019-06-26T06:39:35.572Z,57.46
2019-06-26T06:42:05.583Z,56.68
2019-06-26T06:44:35.597Z,56.14
2019-06-26T06:47:08.775Z,55.28
2019-06-26T06:49:39.113Z,54.96
2019-06-26T06:52:09.108Z,54.28
2019-06-26T06:54:39.131Z,54.52
2019-06-26T06:57:09.126Z,54.01
2019-06-26T06:59:39.152Z,53.93
2019-06-26T07:02:09.151Z,53.64
2019-06-26T07:04:39.152Z,53.90
2019-06-26T07:07:09.146Z,53.52
2019-06-26T07:09:39.165Z,53.03
2019-06-26T07:12:11.315Z,52.67
2019-06-26T07:14:45.935Z,51.83
2019-06-26T07:17:20.382Z,51.45
2019-06-26T07:19:50.594Z,51.08
2019-06-26T07:22:20.588Z,51.38
2019-06-26T07:24:50.607Z,51.48
2019-06-26T07:27:23.267Z,50.90
2019-06-26T07:29:53.280Z,49.50
2019-06-26T07:32:23.374Z,49.04
2019-06-26T07:34:53.440Z,48.73
2019-06-26T07:37:23.445Z,48.45
2019-06-26T07:39:58.739Z,48.74
2019-06-26T07:42:26.063Z,48.10
2019-06-26T07:44:56.084Z,47.97
2019-06-26T07:47:41.862Z,48.01
2019-06-26T07:50:06.174Z,49.45
2019-06-26T07:52:36.278Z,48.71
2019-06-26T07:55:11.755Z,47.26
2019-06-26T07:57:40.103Z,47.88
2019-06-26T08:00:10.584Z,47.74
2019-06-26T08:02:40.988Z,47.80
2019-06-26T08:05:14.461Z,47.21
2019-06-26T08:07:44.597Z,47.72
2019-06-26T08:10:16.158Z,48.21
2019-06-26T08:12:46.172Z,47.28
2019-06-26T08:15:18.284Z,47.93
2019-06-26T08:17:59.995Z,46.60
2019-06-26T08:20:24.892Z,46.75
2019-06-26T08:22:54.969Z,46.71
2019-06-26T08:25:25.056Z,46.88
2019-06-26T08:27:55.233Z,46.56
2019-06-26T08:30:27.192Z,46.36
2019-06-26T08:32:57.935Z,46.30
2019-06-26T08:35:27.965Z,46.12
2019-06-26T08:38:09.879Z,45.91
2019-06-26T08:40:29.697Z,46.32
2019-06-26T08:42:59.731Z,45.87
2019-06-26T08:45:31.854Z,45.64
2019-06-26T08:48:17.420Z,45.65
2019-06-26T08:50:42.059Z,45.82
2019-06-26T08:53:12.066Z,45.51
2019-06-26T08:55:42.065Z,46.36
2019-06-26T08:58:12.171Z,46.00
2019-06-26T09:00:49.066Z,45.84
2019-06-26T09:03:19.186Z,45.23
2019-06-26T09:05:49.386Z,44.71
2019-06-26T09:08:22.759Z,44.77
2019-06-26T09:10:58.477Z,44.55
2019-06-26T09:13:29.756Z,44.41
2019-06-26T09:15:59.715Z,44.64
2019-06-26T09:18:35.407Z,44.62
2019-06-26T09:21:03.288Z,44.37
2019-06-26T09:23:35.207Z,44.46
2019-06-26T09:26:05.387Z,44.54
2019-06-26T09:28:35.455Z,44.40
2019-06-26T09:31:07.689Z,45.52
2019-06-26T09:33:40.728Z,44.82
2019-06-26T09:36:12.049Z,44.57
2019-06-26T09:38:42.065Z,44.56
2019-06-26T09:41:12.114Z,44.82
2019-06-26T09:43:42.919Z,43.78
2019-06-26T09:46:12.997Z,44.23
2019-06-26T09:48:52.668Z,44.87
2019-06-26T09:51:14.728Z,44.92
2019-06-26T09:53:47.654Z,45.11
2019-06-26T09:56:16.556Z,44.73
2019-06-26T09:58:49.657Z,45.15
2019-06-26T10:01:21.542Z,45.44
2019-06-26T10:03:51.587Z,45.25
2019-06-26T10:06:23.301Z,45.26
2019-06-26T10:08:54.571Z,45.98
2019-06-26T10:11:24.896Z,44.75
2019-06-26T10:13:54.929Z,44.17
2019-06-26T10:16:24.940Z,44.93
2019-06-26T10:19:09.735Z,44.79
2019-06-26T10:21:30.137Z,43.85
2019-06-26T10:24:00.298Z,44.10
2019-06-26T10:26:32.586Z,43.09
2019-06-26T10:29:02.035Z,43.25
2019-06-26T10:31:32.398Z,43.06
2019-06-26T10:34:02.530Z,42.12
2019-06-26T10:36:32.917Z,41.66
2019-06-26T10:39:07.873Z,41.23
2019-06-26T10:41:39.544Z,41.61
2019-06-26T10:44:09.548Z,41.78
2019-06-26T10:46:39.660Z,41.29
2019-06-26T10:49:22.687Z,40.14
2019-06-26T10:51:41.462Z,40.37
2019-06-26T10:54:11.616Z,40.28
2019-06-26T10:56:41.588Z,39.72
2019-06-26T10:59:11.681Z,38.86
2019-06-26T11:01:43.630Z,38.42
2019-06-26T11:04:13.622Z,38.21
2019-06-26T11:06:43.613Z,38.04
2019-06-26T11:09:13.637Z,38.47
2019-06-26T11:11:46.386Z,37.38
2019-06-26T11:14:16.433Z,36.89
2019-06-26T11:16:46.419Z,37.49
2019-06-26T11:19:16.451Z,36.02
2019-06-26T11:21:48.294Z,36.04
2019-06-26T11:24:18.334Z,35.06
2019-06-26T11:26:48.363Z,34.14
2019-06-26T11:29:18.435Z,33.24
2019-06-26T11:31:48.461Z,33.04
2019-06-26T11:34:20.114Z,33.28
2019-06-26T11:37:03.268Z,33.76
2019-06-26T11:39:25.133Z,33.83
2019-06-26T11:41:55.229Z,35.19
2019-06-26T11:44:25.325Z,35.33
2019-06-26T11:46:58.334Z,34.18
2019-06-26T11:49:28.385Z,34.99
2019-06-26T11:51:58.371Z,34.88
2019-06-26T11:54:28.385Z,35.11
2019-06-26T11:56:59.321Z,34.99
2019-06-26T11:59:29.366Z,34.89
2019-06-26T12:01:59.388Z,35.12
2019-06-26T12:04:31.040Z,34.66
2019-06-26T12:07:01.068Z,34.86
2019-06-26T12:09:31.101Z,34.89
2019-06-26T12:12:01.797Z,34.67
2019-06-26T12:14:31.974Z,33.90
2019-06-26T12:17:02.000Z,33.76
2019-06-26T12:19:31.976Z,34.50
2019-06-26T12:22:02.148Z,34.59
2019-06-26T12:24:32.238Z,33.97
2019-06-26T12:27:06.871Z,34.02
2019-06-26T12:29:36.905Z,33.79
2019-06-26T12:32:06.979Z,34.80
2019-06-26T12:34:37.063Z,33.68
2019-06-26T12:37:07.080Z,33.81
2019-06-26T12:39:37.082Z,33.56
2019-06-26T12:42:07.693Z,33.24
2019-06-26T12:44:37.685Z,33.83
2019-06-26T12:47:09.497Z,34.39
2019-06-26T12:49:40.826Z,33.11
2019-06-26T12:52:10.836Z,32.96
2019-06-26T12:54:43.602Z,33.21
2019-06-26T12:57:13.788Z,33.93
2019-06-26T12:59:56.680Z,34.83
2019-06-26T13:02:19.392Z,34.55
2019-06-26T13:04:50.465Z,34.75
2019-06-26T13:07:20.481Z,35.34
2019-06-26T13:09:50.482Z,35.44
2019-06-26T13:12:21.636Z,37.02
2019-06-26T13:14:54.802Z,36.85
2019-06-26T13:17:24.956Z,35.78
2019-06-26T13:19:56.660Z,35.46
2019-06-26T13:22:28.547Z,35.79
2019-06-26T13:24:58.577Z,36.19
2019-06-26T13:27:30.185Z,37.48
2019-06-26T13:30:00.702Z,37.32
2019-06-26T13:32:30.797Z,37.85
2019-06-26T13:35:00.833Z,38.02
2019-06-26T13:37:30.934Z,37.80
2019-06-26T13:40:00.942Z,37.84
2019-06-26T13:42:32.039Z,37.90
2019-06-26T13:45:02.185Z,37.90
2019-06-26T13:47:32.583Z,37.56
2019-06-26T13:50:03.631Z,36.89
2019-06-26T13:52:33.618Z,37.22
2019-06-26T13:55:04.174Z,36.62
2019-06-26T13:57:34.192Z,36.90
2019-06-26T14:00:06.123Z,37.18
2019-06-26T14:02:40.186Z,37.79
2019-06-26T14:05:10.379Z,38.56
2019-06-26T14:07:40.475Z,37.82
2019-06-26T14:10:11.137Z,36.80
2019-06-26T14:12:41.125Z,37.22
2019-06-26T14:15:11.587Z,37.88
2019-06-26T14:17:41.730Z,36.17
2019-06-26T14:20:15.374Z,36.81
2019-06-26T14:22:45.412Z,36.95
2019-06-26T14:25:16.198Z,36.89
2019-06-26T14:27:47.285Z,36.47
2019-06-26T14:30:17.731Z,36.30
2019-06-26T14:32:49.778Z,37.26
2019-06-26T14:35:20.273Z,35.89
2019-06-26T14:37:50.436Z,36.86
2019-06-26T14:40:20.871Z,36.71
2019-06-26T14:42:50.899Z,37.26
2019-06-26T14:45:20.989Z,37.23
2019-06-26T14:47:50.993Z,38.30
2019-06-26T14:50:24.155Z,39.75
2019-06-26T14:52:54.231Z,39.26
2019-06-26T14:55:24.334Z,39.59
2019-06-26T14:57:54.377Z,39.39
2019-06-26T15:00:25.027Z,39.08
2019-06-26T15:02:55.133Z,39.71
2019-06-26T15:05:25.288Z,39.82
2019-06-26T15:07:55.543Z,40.50
2019-06-26T15:10:25.659Z,40.04
2019-06-26T15:12:55.670Z,40.82
2019-06-26T15:15:25.794Z,40.31
2019-06-26T15:17:55.897Z,39.95
2019-06-26T15:20:27.572Z,39.08
2019-06-26T15:22:58.887Z,39.63
2019-06-26T15:25:31.773Z,40.01
2019-06-26T15:28:01.818Z,39.27
2019-06-26T15:30:31.982Z,38.24
2019-06-26T15:33:02.010Z,38.22
2019-06-26T15:35:35.468Z,37.83
2019-06-26T15:38:05.571Z,37.96
2019-06-26T15:40:35.781Z,37.00
2019-06-26T15:43:05.848Z,37.54
2019-06-26T15:45:36.025Z,38.11
2019-06-26T15:48:06.142Z,40.73
2019-06-26T15:50:36.146Z,40.58
2019-06-26T15:53:08.698Z,39.71
2019-06-26T15:55:38.697Z,39.15
2019-06-26T15:58:08.838Z,39.85
2019-06-26T16:00:42.501Z,40.37
2019-06-26T16:03:12.579Z,39.05
2019-06-26T16:05:42.677Z,39.02
2019-06-26T16:08:13.666Z,39.37
2019-06-26T16:10:43.712Z,39.72
2019-06-26T16:13:16.449Z,40.10
2019-06-26T16:15:49.555Z,39.82
2019-06-26T16:18:22.522Z,40.33
2019-06-26T16:20:53.648Z,40.97
2019-06-26T16:23:23.767Z,41.21
2019-06-26T16:25:53.752Z,40.57
2019-06-26T16:28:23.775Z,40.95
2019-06-26T16:30:53.755Z,40.69
2019-06-26T16:33:23.774Z,40.28
2019-06-26T16:35:55.710Z,40.22
2019-06-26T16:38:25.797Z,39.97
2019-06-26T16:40:55.852Z,40.48
2019-06-26T16:43:25.878Z,41.54
2019-06-26T16:45:55.882Z,41.35
2019-06-26T16:48:26.007Z,41.38
2019-06-26T16:50:55.994Z,42.29
2019-06-26T16:53:26.017Z,42.69
2019-06-26T16:55:56.052Z,43.50
2019-06-26T16:58:26.085Z,43.25
2019-06-26T17:00:57.004Z,43.98
2019-06-26T17:03:29.836Z,43.68
2019-06-26T17:06:00.089Z,43.83
2019-06-26T17:08:30.184Z,43.93
2019-06-26T17:11:00.402Z,44.05
2019-06-26T17:13:30.483Z,43.92
2019-06-26T17:16:00.565Z,44.26
2019-06-26T17:18:30.560Z,44.75
2019-06-26T17:21:00.599Z,44.46
2019-06-26T17:23:30.631Z,43.66
2019-06-26T17:26:00.674Z,43.42
2019-06-26T17:28:30.652Z,44.00
2019-06-26T17:31:00.747Z,45.11
2019-06-26T17:33:30.871Z,45.06
2019-06-26T17:36:00.905Z,45.17
2019-06-26T17:38:30.979Z,45.91
2019-06-26T17:41:00.999Z,46.54
2019-06-26T17:43:30.991Z,46.40
2019-06-26T17:46:02.654Z,46.05
2019-06-26T17:48:32.657Z,46.43
2019-06-26T17:51:03.280Z,46.39
2019-06-26T17:53:33.432Z,46.30
2019-06-26T17:56:03.621Z,45.55
2019-06-26T17:58:34.897Z,45.17
2019-06-26T18:01:04.858Z,45.07
2019-06-26T18:03:35.131Z,45.08
2019-06-26T18:06:06.510Z,45.06
2019-06-26T18:08:36.599Z,44.94
2019-06-26T18:11:07.800Z,44.21
2019-06-26T18:13:38.319Z,44.69
2019-06-26T18:16:08.378Z,43.26
2019-06-26T18:18:38.494Z,43.77
2019-06-26T18:21:08.795Z,44.05
2019-06-26T18:23:38.868Z,44.13
2019-06-26T18:26:13.596Z,44.31
2019-06-26T18:28:42.378Z,44.89
2019-06-26T18:31:12.446Z,52.47
2019-06-26T18:33:44.324Z,44.72
2019-06-26T18:36:14.232Z,44.25
2019-06-26T18:38:44.244Z,44.86
2019-06-26T18:41:14.233Z,44.17
2019-06-26T18:43:44.318Z,44.53
2019-06-26T18:46:14.346Z,45.42
2019-06-26T18:48:44.517Z,44.75
2019-06-26T18:51:14.526Z,44.00
2019-06-26T18:53:53.619Z,44.39
2019-06-26T18:56:16.879Z,45.19
2019-06-26T18:58:46.863Z,45.87
2019-06-26T19:01:19.637Z,45.97
2019-06-26T19:03:49.619Z,46.61
2019-06-26T19:06:22.382Z,47.69
2019-06-26T19:08:52.401Z,48.03
2019-06-26T19:11:22.394Z,48.97
2019-06-26T19:13:52.781Z,49.28
2019-06-26T19:16:22.780Z,49.57
2019-06-26T19:18:52.790Z,49.77
2019-06-26T19:21:22.794Z,49.64
2019-06-26T19:24:08.871Z,50.15
2019-06-26T19:26:24.580Z,50.74
2019-06-26T19:28:55.135Z,51.02
2019-06-26T19:31:25.216Z,50.26
2019-06-26T19:33:55.237Z,51.30
2019-06-26T19:36:28.519Z,51.47
2019-06-26T19:38:56.984Z,51.56
2019-06-26T19:41:27.055Z,52.13
2019-06-26T19:43:57.153Z,51.61
2019-06-26T19:46:27.245Z,52.13
2019-06-26T19:48:57.750Z,53.36
2019-06-26T19:51:28.021Z,53.16
2019-06-26T19:53:58.003Z,53.61
2019-06-26T19:56:28.105Z,53.95
2019-06-26T19:58:58.095Z,54.52
2019-06-26T20:01:28.193Z,54.18
2019-06-26T20:03:58.206Z,53.90
2019-06-26T20:06:28.291Z,54.05
2019-06-26T20:08:58.275Z,54.54
2019-06-26T20:11:28.373Z,55.19
2019-06-26T20:13:58.376Z,54.96
2019-06-26T20:16:28.473Z,55.59
2019-06-26T20:18:58.458Z,56.01
2019-06-26T20:21:29.560Z,56.88
2019-06-26T20:23:59.556Z,56.68
2019-06-26T20:26:29.582Z,57.77
2019-06-26T20:28:59.656Z,57.80
2019-06-26T20:31:29.729Z,58.24
2019-06-26T20:33:59.725Z,58.64
2019-06-26T20:36:29.737Z,57.90
2019-06-26T20:38:59.735Z,58.10
2019-06-26T20:41:29.816Z,58.54
2019-06-26T20:43:59.819Z,58.41
2019-06-26T20:46:29.900Z,58.16
2019-06-26T20:48:59.972Z,58.91
2019-06-26T20:51:29.986Z,59.20
2019-06-26T20:54:00.251Z,59.03
2019-06-26T20:56:30.261Z,60.04
2019-06-26T20:59:00.268Z,59.94
2019-06-26T21:01:30.356Z,60.11
2019-06-26T21:04:00.347Z,60.08
2019-06-26T21:06:30.428Z,60.94
2019-06-26T21:09:00.498Z,60.62
2019-06-26T21:11:31.686Z,61.10
2019-06-26T21:14:02.762Z,61.58
2019-06-26T21:16:33.854Z,61.45
2019-06-26T21:19:06.626Z,61.90
2019-06-26T21:21:38.737Z,62.43
2019-06-26T21:24:08.354Z,62.38
2019-06-26T21:26:38.434Z,61.84
2019-06-26T21:29:10.071Z,61.95
2019-06-26T21:31:40.102Z,62.52
2019-06-26T21:34:10.240Z,62.88
2019-06-26T21:36:40.229Z,62.85
2019-06-26T21:39:10.234Z,63.35
2019-06-26T21:41:40.227Z,63.69
2019-06-26T21:44:10.242Z,63.68
2019-06-26T21:46:40.268Z,62.81
2019-06-26T21:49:10.353Z,63.06
2019-06-26T21:51:43.155Z,63.39
2019-06-26T21:54:13.177Z,63.21
2019-06-26T21:57:00.886Z,63.07
2019-06-26T21:59:48.841Z,63.34
2019-06-26T22:02:36.974Z,63.04
2019-06-26T22:05:09.271Z,63.07
2019-06-26T22:07:40.949Z,62.47
2019-06-26T22:10:13.194Z,62.34
2019-06-26T22:12:46.266Z,62.13
2019-06-26T22:15:16.751Z,63.04
2019-06-26T22:17:46.811Z,62.73
2019-06-26T22:20:17.155Z,62.78
2019-06-26T22:22:47.286Z,62.50
2019-06-26T22:25:17.565Z,62.21
2019-06-26T22:27:47.860Z,62.85
2019-06-26T22:30:19.818Z,63.29
2019-06-26T22:32:49.867Z,62.56
2019-06-26T22:35:19.950Z,63.38
2019-06-26T22:37:51.874Z,63.50
2019-06-26T22:40:21.883Z,63.48
2019-06-26T22:42:51.961Z,63.58
2019-06-26T22:45:22.997Z,63.36
2019-06-26T22:47:53.009Z,63.40
2019-06-26T22:50:23.074Z,63.50
2019-06-26T22:52:53.162Z,63.80
2019-06-26T22:55:23.227Z,63.96
2019-06-26T22:57:57.801Z,64.22
2019-06-26T23:00:27.920Z,64.50
2019-06-26T23:02:57.958Z,64.49
2019-06-26T23:05:27.952Z,63.80
2019-06-26T23:07:57.978Z,64.24
2019-06-26T23:10:27.997Z,63.25
2019-06-26T23:12:59.670Z,63.56
2019-06-26T23:15:29.684Z,63.39
2019-06-26T23:17:59.702Z,64.19
2019-06-26T23:20:29.697Z,63.96
2019-06-26T23:22:59.772Z,64.29
2019-06-26T23:25:30.257Z,64.59
2019-06-26T23:28:03.344Z,64.18
2019-06-26T23:30:33.351Z,64.15
2019-06-26T23:33:04.862Z,63.93
2019-06-26T23:35:35.464Z,64.27
2019-06-26T23:38:05.826Z,64.64
2019-06-26T23:40:35.856Z,64.70
2019-06-26T23:43:05.942Z,65.03
2019-06-26T23:45:36.090Z,64.66
2019-06-26T23:48:06.166Z,64.67
2019-06-26T23:50:36.184Z,65.73
2019-06-26T23:53:06.178Z,65.51
2019-06-26T23:55:36.187Z,65.40
2019-06-26T23:58:06.248Z,65.52
